Randall Island, California
Current Conditions -  °F | °C
As of 1:53 AM on Saturday 29 Nov 2014 (Local Time) from KSAC Reporting Station
Haze Haze  
Wind Chill: 55°   Ceiling: 2500
Heat Index: 55°   Visibility: 4mi
Dew Point: 52°   Wind: 6mph
Humidity: 89%   Direction: 120°ESE
Pressure: 29.85"   Gusts: NA
Location:  38.3168°N, 121.532°W
Report Text: KSAC 290953Z AUTO 12005KT 4SM BR OVC025 13/11 A2985 RMK AO2 RAE00 SLP109 P0000 T01280111
Loading
Personal Weather Stations






























Interactive Weather Map New forecast layout! Learn more

10-Day Weather Forecast

Advertisements
Track Severe Weather on mobile